Time;durP1;ratioP1;P1;durP2;ratioP2;P2;SDS_P1;SDS_P2;PMS_P1;PMS_P2;Temp;Humidity;BMP_temperature;BMP_pressure;BME280_temperature;BME280_humidity;BME280_pressure;Samples;Min_cycle;Max_cycle;Signal;HPM_P1;HPM_P2
2021/12/25 00:00:55;;;;;;;45.17;23.48;;;11.20;99.90;;;;;;4949884;28;20177;-80
2021/12/25 00:03:22;;;;;;;36.05;20.75;;;11.10;99.90;;;;;;4934826;29;20172;-83
2021/12/25 00:05:52;;;;;;;37.47;20.38;;;11.00;99.90;;;;;;4934857;29;20254;-81
2021/12/25 00:08:19;;;;;;;41.35;21.33;;;11.00;99.90;;;;;;4934492;29;20660;-80
2021/12/25 00:10:44;;;;;;;46.65;21.45;;;11.10;99.90;;;;;;4949413;28;20262;-81
2021/12/25 00:13:10;;;;;;;38.08;20.02;;;11.10;99.90;;;;;;4934528;29;20302;-81
2021/12/25 00:15:36;;;;;;;45.83;21.92;;;11.10;99.90;;;;;;4934977;29;20172;-79
2021/12/25 00:18:02;;;;;;;35.35;18.80;;;11.20;99.90;;;;;;4934722;29;20199;-78
2021/12/25 00:20:27;;;;;;;36.92;21.13;;;11.10;99.90;;;;;;4934749;29;20175;-77
2021/12/25 00:22:53;;;;;;;42.20;20.95;;;11.00;99.90;;;;;;4934596;29;20226;-78
2021/12/25 00:25:20;;;;;;;42.58;21.42;;;10.90;99.90;;;;;;4934494;29;20175;-78
2021/12/25 00:27:58;;;;;;;38.13;22.30;;;10.80;99.90;;;;;;4934500;29;20191;-78
2021/12/25 00:30:32;;;;;;;40.63;19.90;;;10.70;99.90;;;;;;4965517;28;20226;-78
2021/12/25 00:33:07;;;;;;;42.33;21.85;;;10.80;99.90;;;;;;4965406;28;20226;-78
2021/12/25 00:35:33;;;;;;;47.25;22.65;;;10.70;99.90;;;;;;4934241;29;20167;-78
2021/12/25 00:37:58;;;;;;;43.65;21.92;;;10.70;99.90;;;;;;4937317;29;20270;-79
2021/12/25 00:40:24;;;;;;;38.72;21.10;;;10.70;99.90;;;;;;4938198;29;20168;-78
2021/12/25 00:42:49;;;;;;;41.88;21.42;;;10.70;99.90;;;;;;4938468;29;20388;-78
2021/12/25 00:45:15;;;;;;;41.03;20.88;;;10.60;99.90;;;;;;4938176;29;20191;-77
2021/12/25 00:47:41;;;;;;;40.30;21.63;;;10.60;99.90;;;;;;4937974;29;20258;-77
2021/12/25 00:50:08;;;;;;;44.80;22.25;;;10.70;99.90;;;;;;4938068;29;20171;-78
2021/12/25 00:52:33;;;;;;;39.60;21.83;;;10.50;99.90;;;;;;4937847;29;20241;-78
2021/12/25 00:55:01;;;;;;;43.22;21.73;;;10.50;99.90;;;;;;4937724;29;20579;-78
2021/12/25 00:57:26;;;;;;;41.20;22.52;;;10.40;99.90;;;;;;4968871;28;20210;-78
2021/12/25 00:59:52;;;;;;;40.10;21.65;;;10.20;99.90;;;;;;4938364;29;20211;-78
2021/12/25 01:02:17;;;;;;;44.08;22.52;;;10.00;99.90;;;;;;4937607;29;20171;-78
2021/12/25 01:04:43;;;;;;;45.35;22.77;;;9.90;99.90;;;;;;4937698;29;20172;-78
2021/12/25 01:07:08;;;;;;;46.60;23.05;;;9.70;99.90;;;;;;4937490;29;20175;-78
2021/12/25 01:09:34;;;;;;;45.25;23.38;;;9.70;99.90;;;;;;4937375;29;20270;-78
2021/12/25 01:12:00;;;;;;;43.95;22.50;;;9.80;99.90;;;;;;4937694;29;20206;-78
2021/12/25 01:14:42;;;;;;;46.35;23.27;;;9.60;99.90;;;;;;4937486;29;20735;-78
2021/12/25 01:17:41;;;;;;;51.03;24.95;;;9.60;99.90;;;;;;4937308;29;20175;-78
2021/12/25 01:41:16;;;;;;;49.30;24.80;;;9.20;99.90;;;;;;4936044;29;20183;-78
2021/12/25 01:49:10;;;;;;;63.28;26.30;;;8.90;99.90;;;;;;4936626;29;20206;-77
2021/12/25 01:51:35;;;;;;;55.88;24.95;;;8.60;99.90;;;;;;4936753;29;20215;-79
2021/12/25 01:54:01;;;;;;;59.72;26.15;;;8.70;99.90;;;;;;4936889;29;20183;-78
2021/12/25 01:56:27;;;;;;;57.03;26.50;;;8.70;99.90;;;;;;4936812;29;20554;-78
2021/12/25 01:58:53;;;;;;;54.90;25.58;;;8.90;99.90;;;;;;4936753;29;20198;-78
2021/12/25 02:01:19;;;;;;;60.65;27.23;;;8.80;99.90;;;;;;4936413;29;20571;-79
2021/12/25 02:03:45;;;;;;;54.45;26.30;;;8.80;99.90;;;;;;4936764;29;20186;-78
2021/12/25 02:06:11;;;;;;;59.67;26.50;;;8.70;99.90;;;;;;4936733;29;20536;-77
2021/12/25 02:08:39;;;;;;;57.30;26.95;;;8.70;99.90;;;;;;4936268;29;20197;-78
2021/12/25 02:11:10;;;;;;;53.35;24.88;;;8.90;99.90;;;;;;4951142;28;20536;-78
2021/12/25 02:13:38;;;;;;;55.03;25.40;;;8.90;99.90;;;;;;4936643;29;20195;-79
2021/12/25 02:16:11;;;;;;;53.53;26.17;;;8.90;99.90;;;;;;4951317;29;20167;-78
2021/12/25 02:21:10;;;;;;;53.03;25.73;;;9.20;99.90;;;;;;4936422;29;20649;-78
2021/12/25 02:23:36;;;;;;;50.40;23.88;;;9.00;99.90;;;;;;4936173;29;20183;-79
2021/12/25 02:26:03;;;;;;;60.33;25.90;;;9.00;99.90;;;;;;4936397;29;20167;-79
2021/12/25 02:28:29;;;;;;;55.85;27.05;;;8.90;99.90;;;;;;4936359;29;20206;-78
2021/12/25 02:31:01;;;;;;;50.58;24.83;;;8.70;99.90;;;;;;4936252;29;20167;-78
2021/12/25 02:33:28;;;;;;;58.75;26.75;;;8.80;99.90;;;;;;4936420;29;20270;-78
2021/12/25 02:35:54;;;;;;;51.03;24.60;;;8.90;99.90;;;;;;4935993;29;20175;-78
2021/12/25 02:38:20;;;;;;;47.92;24.35;;;8.90;99.90;;;;;;4935709;29;20187;-78
2021/12/25 02:40:46;;;;;;;49.72;25.13;;;8.90;99.90;;;;;;4935925;29;20163;-78
2021/12/25 02:43:12;;;;;;;74.55;25.85;;;8.80;99.90;;;;;;4936002;29;20191;-79
2021/12/25 02:45:38;;;;;;;54.65;24.90;;;8.70;99.90;;;;;;4950543;28;20186;-80
2021/12/25 02:48:10;;;;;;;51.25;24.27;;;8.80;99.90;;;;;;4936050;29;20191;-79
2021/12/25 02:50:38;;;;;;;52.47;24.98;;;8.80;99.90;;;;;;4935946;29;20167;-80
2021/12/25 02:53:07;;;;;;;52.45;24.52;;;8.80;99.90;;;;;;4935467;29;20219;-79
2021/12/25 02:55:33;;;;;;;49.63;23.20;;;9.00;99.90;;;;;;4935488;29;20352;-79
2021/12/25 02:57:59;;;;;;;54.35;23.48;;;8.80;99.90;;;;;;4935496;29;20194;-79
2021/12/25 03:00:28;;;;;;;57.08;23.48;;;8.80;99.90;;;;;;4934727;29;20179;-79
2021/12/25 03:02:54;;;;;;;45.72;23.02;;;8.70;99.90;;;;;;4935758;29;20182;-79
2021/12/25 03:05:20;;;;;;;49.10;22.73;;;8.60;99.90;;;;;;4935900;29;20167;-79
2021/12/25 03:07:46;;;;;;;53.78;24.27;;;8.80;99.90;;;;;;4935668;29;20250;-80
2021/12/25 03:10:14;;;;;;;46.70;23.00;;;8.90;99.90;;;;;;4934467;29;20172;-79
2021/12/25 03:12:53;;;;;;;56.45;24.40;;;8.90;99.90;;;;;;4938153;29;20218;-79
2021/12/25 03:15:29;;;;;;;42.53;21.27;;;8.70;99.90;;;;;;4943061;29;20218;-80
2021/12/25 03:17:56;;;;;;;48.97;21.05;;;8.60;99.90;;;;;;4957586;28;20195;-79
2021/12/25 03:20:23;;;;;;;50.20;21.08;;;8.60;99.90;;;;;;4942634;29;20187;-78
2021/12/25 03:22:48;;;;;;;45.53;21.38;;;8.60;99.90;;;;;;4943650;29;20171;-79
2021/12/25 03:25:17;;;;;;;48.65;20.83;;;8.60;99.90;;;;;;4943146;29;20166;-78
2021/12/25 03:27:46;;;;;;;39.72;21.17;;;8.70;99.90;;;;;;4943332;29;20173;-78
2021/12/25 03:30:15;;;;;;;54.38;22.50;;;8.90;99.90;;;;;;4940925;29;20190;-79
2021/12/25 03:32:41;;;;;;;50.28;22.25;;;8.90;99.90;;;;;;4939099;29;20245;-79
2021/12/25 03:35:07;;;;;;;44.05;20.70;;;9.00;99.90;;;;;;4941168;29;20163;-78
2021/12/25 03:37:33;;;;;;;49.55;21.67;;;9.00;99.90;;;;;;4942054;29;20219;-78
2021/12/25 03:39:58;;;;;;;41.63;19.83;;;8.80;99.90;;;;;;4941928;29;20167;-78
2021/12/25 03:42:24;;;;;;;44.47;21.40;;;8.80;99.90;;;;;;4944091;29;20170;-78
2021/12/25 03:44:50;;;;;;;48.30;20.30;;;8.80;99.90;;;;;;4970633;28;20651;-79
2021/12/25 03:47:27;;;;;;;44.88;20.58;;;8.80;99.90;;;;;;4936352;29;20207;-78
2021/12/25 03:58:10;;;;;;;33.95;19.30;;;8.70;99.90;;;;;;4935425;29;20197;-79
2021/12/25 04:00:37;;;;;;;39.05;20.42;;;8.80;99.90;;;;;;4935301;29;20171;-79
2021/12/25 04:03:07;;;;;;;36.70;18.60;;;8.70;99.90;;;;;;4935617;29;20202;-78
2021/12/25 04:05:35;;;;;;;35.55;18.08;;;8.70;99.90;;;;;;4950024;28;20179;-78
2021/12/25 04:10:35;;;;;;;33.00;18.08;;;8.50;99.90;;;;;;4936447;29;20175;-78
2021/12/25 04:13:03;;;;;;;33.42;18.08;;;8.60;99.90;;;;;;4939189;29;20214;-80
2021/12/25 04:15:29;;;;;;;34.15;17.42;;;8.80;99.90;;;;;;4938721;29;20173;-78
2021/12/25 04:17:55;;;;;;;28.13;15.57;;;8.80;99.90;;;;;;4953362;28;20195;-79
2021/12/25 04:20:21;;;;;;;29.35;16.85;;;8.60;99.90;;;;;;4939085;29;20175;-79
2021/12/25 04:22:53;;;;;;;30.50;15.65;;;8.90;99.90;;;;;;4939010;29;20178;-78
2021/12/25 04:25:24;;;;;;;22.50;13.35;;;8.80;99.90;;;;;;4938411;29;20594;-78
2021/12/25 04:27:49;;;;;;;23.00;13.88;;;8.60;99.90;;;;;;4969459;28;20218;-78
2021/12/25 04:30:29;;;;;;;22.80;13.90;;;8.50;99.90;;;;;;4938797;29;20629;-79
2021/12/25 04:42:49;;;;;;;15.80;8.73;;;8.40;99.90;;;;;;4938945;29;20334;-77
2021/12/25 05:01:40;;;;;;;7.05;6.35;;;8.10;99.90;;;;;;4939068;29;20202;-78
2021/12/25 05:06:00;;;;;;;8.18;6.53;;;8.10;99.90;;;;;;4937879;29;20183;-79
2021/12/25 05:08:26;;;;;;;8.95;7.68;;;8.00;99.90;;;;;;4937673;29;20187;-79
2021/12/25 05:10:51;;;;;;;7.45;6.60;;;7.80;99.90;;;;;;4937804;29;20222;-79
2021/12/25 05:13:17;;;;;;;10.38;7.70;;;7.80;99.90;;;;;;4937642;29;20214;-79
2021/12/25 05:15:43;;;;;;;8.00;7.00;;;7.80;99.90;;;;;;4937956;29;20167;-80
2021/12/25 05:18:08;;;;;;;8.18;7.32;;;7.60;99.90;;;;;;4937706;29;20648;-78
2021/12/25 05:20:34;;;;;;;10.70;7.72;;;7.70;99.90;;;;;;4937648;29;20182;-78
2021/12/25 05:23:00;;;;;;;10.50;7.82;;;7.70;99.90;;;;;;4937087;29;20223;-78
2021/12/25 05:25:25;;;;;;;10.88;9.00;;;7.50;99.90;;;;;;4937542;29;20172;-79
2021/12/25 05:27:51;;;;;;;13.98;8.45;;;7.50;99.90;;;;;;4937645;29;20195;-78
2021/12/25 05:30:18;;;;;;;14.43;8.90;;;7.40;99.90;;;;;;4937434;29;20202;-79
2021/12/25 05:32:44;;;;;;;12.30;8.25;;;7.40;99.90;;;;;;4937614;29;20266;-79
2021/12/25 05:35:10;;;;;;;12.05;8.63;;;7.40;99.90;;;;;;4937181;29;20163;-78
2021/12/25 05:37:36;;;;;;;10.95;8.35;;;7.40;99.90;;;;;;4952043;28;20512;-78
2021/12/25 05:40:04;;;;;;;11.10;8.68;;;7.40;99.90;;;;;;4937393;29;20182;-78
2021/12/25 05:42:30;;;;;;;12.95;9.38;;;7.40;99.90;;;;;;4937489;29;20170;-79
2021/12/25 05:44:56;;;;;;;11.68;9.38;;;7.30;99.90;;;;;;4937295;29;20172;-79
2021/12/25 05:47:21;;;;;;;14.55;10.27;;;7.20;99.90;;;;;;4937885;29;20690;-79
2021/12/25 05:49:47;;;;;;;13.38;9.45;;;7.20;99.90;;;;;;4937305;29;20561;-79
2021/12/25 05:52:13;;;;;;;16.05;10.02;;;7.10;99.90;;;;;;4951996;28;20210;-79
2021/12/25 05:54:39;;;;;;;14.05;8.93;;;7.20;99.90;;;;;;4936891;29;20191;-78
2021/12/25 05:57:05;;;;;;;14.45;10.57;;;7.20;99.90;;;;;;4936805;29;20174;-79
2021/12/25 05:59:31;;;;;;;15.77;10.15;;;7.10;99.90;;;;;;4936639;29;20194;-78
2021/12/25 06:01:56;;;;;;;16.10;11.52;;;7.20;99.90;;;;;;4936897;29;20633;-78
2021/12/25 06:04:22;;;;;;;19.17;12.35;;;7.10;99.90;;;;;;4937008;29;20309;-79
2021/12/25 06:06:47;;;;;;;16.80;10.60;;;7.10;99.90;;;;;;4937038;29;20167;-79
2021/12/25 06:09:13;;;;;;;17.08;10.70;;;7.00;99.90;;;;;;4967346;28;20554;-79
2021/12/25 06:11:39;;;;;;;12.77;10.07;;;6.90;99.90;;;;;;4936722;29;20217;-80
2021/12/25 06:14:26;;;;;;;14.60;9.38;;;6.80;99.90;;;;;;4936793;29;20171;-79
2021/12/25 06:16:51;;;;;;;15.38;9.60;;;6.70;99.90;;;;;;4936221;29;20187;-79
2021/12/25 06:19:17;;;;;;;16.85;10.35;;;6.70;99.90;;;;;;4936501;29;20564;-79
2021/12/25 06:21:44;;;;;;;16.08;9.75;;;6.80;99.90;;;;;;4936836;29;20172;-79
2021/12/25 06:24:10;;;;;;;19.63;10.70;;;6.80;99.90;;;;;;4936794;29;20179;-79
2021/12/25 06:26:38;;;;;;;17.63;10.30;;;6.90;99.90;;;;;;4936412;29;20174;-79
2021/12/25 06:29:04;;;;;;;16.33;10.50;;;6.80;99.90;;;;;;4936382;29;20194;-78
2021/12/25 06:31:30;;;;;;;15.52;10.00;;;6.90;99.90;;;;;;4936652;29;20206;-79
2021/12/25 06:33:57;;;;;;;14.05;11.00;;;6.80;99.90;;;;;;4935727;29;20171;-79
2021/12/25 06:36:22;;;;;;;19.40;9.57;;;6.70;99.90;;;;;;4936163;29;20890;-79
2021/12/25 06:38:48;;;;;;;16.33;10.23;;;6.60;99.90;;;;;;4935739;29;20184;-78
2021/12/25 06:41:14;;;;;;;13.32;9.88;;;6.70;99.90;;;;;;4936239;29;20166;-78
2021/12/25 06:43:40;;;;;;;14.75;10.77;;;6.60;99.90;;;;;;4966893;28;20175;-78
2021/12/25 06:46:06;;;;;;;12.55;9.05;;;6.60;99.90;;;;;;4936076;29;21240;-78
2021/12/25 06:48:32;;;;;;;11.98;9.48;;;6.70;99.90;;;;;;4935924;29;20196;-79
2021/12/25 06:50:58;;;;;;;12.32;9.23;;;6.60;99.90;;;;;;4936088;29;20632;-79
2021/12/25 06:53:23;;;;;;;12.27;8.82;;;6.60;99.90;;;;;;4935501;29;20225;-79
2021/12/25 06:55:49;;;;;;;11.57;7.85;;;6.50;99.90;;;;;;4966734;28;20262;-79
2021/12/25 06:58:14;;;;;;;12.88;9.48;;;6.50;99.90;;;;;;4935566;29;20573;-79
2021/12/25 07:00:40;;;;;;;13.50;9.18;;;6.60;99.90;;;;;;4935555;29;20175;-79
2021/12/25 07:03:06;;;;;;;14.80;9.68;;;6.50;99.90;;;;;;4935798;29;20177;-79
2021/12/25 07:05:31;;;;;;;10.55;8.25;;;6.30;99.90;;;;;;4935874;29;20175;-79
2021/12/25 07:07:57;;;;;;;9.93;7.50;;;6.20;99.90;;;;;;4935755;29;20242;-79
2021/12/25 07:10:23;;;;;;;10.52;8.00;;;6.20;99.90;;;;;;4935746;29;20167;-81
2021/12/25 07:12:52;;;;;;;11.18;8.07;;;6.10;99.90;;;;;;4935549;29;20207;-79
2021/12/25 07:15:17;;;;;;;11.38;8.50;;;6.10;99.90;;;;;;4935854;29;20586;-79
2021/12/25 07:17:43;;;;;;;11.60;8.43;;;6.20;99.90;;;;;;4935650;29;20178;-79
2021/12/25 07:20:09;;;;;;;11.48;7.80;;;6.20;99.90;;;;;;4950277;28;20583;-79
2021/12/25 07:22:35;;;;;;;10.50;7.63;;;6.10;99.90;;;;;;4935515;29;20235;-79
2021/12/25 07:25:01;;;;;;;11.20;8.25;;;6.00;99.90;;;;;;4935328;29;20171;-79
2021/12/25 07:27:27;;;;;;;10.65;7.70;;;6.00;99.90;;;;;;4935498;29;20224;-79
2021/12/25 07:29:53;;;;;;;13.10;9.27;;;5.80;99.90;;;;;;4935259;29;20501;-79
2021/12/25 07:32:18;;;;;;;13.57;9.18;;;5.70;99.90;;;;;;4949817;28;20207;-79
2021/12/25 07:34:47;;;;;;;10.52;8.32;;;5.70;99.90;;;;;;4935364;29;20178;-79
2021/12/25 07:37:14;;;;;;;13.60;9.98;;;5.80;99.90;;;;;;4935238;29;20695;-79
2021/12/25 07:39:43;;;;;;;10.65;8.43;;;5.80;99.90;;;;;;4934670;29;20274;-79
2021/12/25 07:42:10;;;;;;;10.52;8.75;;;5.80;99.90;;;;;;4935129;29;20688;-79
2021/12/25 07:44:35;;;;;;;11.93;9.35;;;5.70;99.90;;;;;;4935457;29;20182;-79
2021/12/25 07:47:02;;;;;;;16.33;11.13;;;5.70;99.90;;;;;;4934961;29;20179;-80
2021/12/25 07:49:28;;;;;;;12.90;9.43;;;5.60;99.90;;;;;;4935280;29;20183;-78
2021/12/25 07:51:53;;;;;;;15.00;9.93;;;5.50;99.90;;;;;;4935217;29;20232;-78
2021/12/25 07:54:19;;;;;;;14.27;9.75;;;5.50;99.90;;;;;;4933856;29;20274;-78
2021/12/25 07:56:45;;;;;;;17.95;10.65;;;5.60;99.90;;;;;;4935026;29;20305;-78
2021/12/25 07:59:11;;;;;;;16.65;11.85;;;5.70;99.90;;;;;;4934801;29;20595;-79
2021/12/25 08:01:36;;;;;;;18.63;11.27;;;5.70;99.90;;;;;;4934739;29;20178;-79
2021/12/25 08:04:03;;;;;;;19.33;11.75;;;5.70;99.90;;;;;;4935283;29;20183;-78
2021/12/25 08:06:30;;;;;;;16.48;11.00;;;5.80;99.90;;;;;;4935194;29;20260;-80
2021/12/25 08:08:59;;;;;;;17.63;10.70;;;5.80;99.90;;;;;;4949334;29;20230;-80
2021/12/25 08:11:25;;;;;;;13.43;9.82;;;5.80;99.90;;;;;;4949340;28;20198;-78
2021/12/25 08:13:51;;;;;;;13.38;8.88;;;5.70;99.90;;;;;;4949368;28;20672;-78
2021/12/25 08:16:17;;;;;;;14.32;10.98;;;5.90;99.90;;;;;;4934394;29;20182;-79
2021/12/25 08:18:42;;;;;;;11.88;9.50;;;5.90;99.90;;;;;;4949190;28;20655;-81
2021/12/25 08:21:08;;;;;;;18.52;10.93;;;5.70;99.90;;;;;;4934442;29;20222;-80
2021/12/25 08:23:33;;;;;;;12.18;9.32;;;5.70;99.90;;;;;;4934500;29;20171;-80
2021/12/25 08:26:00;;;;;;;12.93;10.27;;;5.50;99.90;;;;;;4934426;29;20262;-80
2021/12/25 08:28:26;;;;;;;15.80;10.68;;;5.30;99.90;;;;;;4934388;29;20594;-80
2021/12/25 08:30:52;;;;;;;12.75;10.27;;;5.20;99.90;;;;;;4934379;29;20176;-80
2021/12/25 08:33:18;;;;;;;11.63;10.07;;;5.20;99.90;;;;;;4934783;29;20203;-79
2021/12/25 08:35:44;;;;;;;16.90;11.90;;;5.20;99.90;;;;;;4934734;29;20171;-79
2021/12/25 08:38:11;;;;;;;16.55;12.25;;;5.10;99.90;;;;;;4949091;28;20191;-79
2021/12/25 08:40:38;;;;;;;13.68;11.23;;;5.20;99.90;;;;;;4933985;29;20218;-80
2021/12/25 08:43:05;;;;;;;13.82;11.52;;;5.20;99.90;;;;;;4934895;29;20175;-79
2021/12/25 08:48:03;;;;;;;14.93;11.27;;;5.20;99.90;;;;;;4934569;29;20199;-79
2021/12/25 08:50:29;;;;;;;14.02;10.95;;;5.10;99.90;;;;;;4934693;29;20695;-80
2021/12/25 08:52:55;;;;;;;21.30;14.13;;;5.00;99.90;;;;;;4934548;29;20227;-80
2021/12/25 08:55:21;;;;;;;17.58;12.23;;;5.10;99.90;;;;;;4930402;29;20180;-79
2021/12/25 08:57:47;;;;;;;17.33;12.40;;;5.00;99.90;;;;;;4941935;28;20195;-80
2021/12/25 09:00:13;;;;;;;19.48;14.02;;;5.10;99.90;;;;;;4937585;29;20182;-79
2021/12/25 09:02:39;;;;;;;19.45;13.27;;;5.00;99.90;;;;;;4938079;29;20170;-79
2021/12/25 09:05:05;;;;;;;18.58;13.55;;;4.90;99.90;;;;;;4937721;29;20176;-79
2021/12/25 09:07:30;;;;;;;16.58;12.10;;;5.10;99.90;;;;;;4937399;29;20267;-79
2021/12/25 09:09:56;;;;;;;16.83;12.38;;;5.00;99.90;;;;;;4937286;29;20168;-80
2021/12/25 09:12:24;;;;;;;16.63;12.65;;;4.90;99.90;;;;;;4937485;29;20214;-84
2021/12/25 09:14:49;;;;;;;16.40;11.77;;;5.00;99.90;;;;;;4951763;28;20175;-84
2021/12/25 09:17:15;;;;;;;12.80;10.82;;;5.00;99.90;;;;;;4937062;28;20326;-78
2021/12/25 09:19:42;;;;;;;13.48;11.60;;;5.10;99.90;;;;;;4948683;28;20194;-78
2021/12/25 09:22:10;;;;;;;18.10;11.98;;;5.00;99.90;;;;;;4946191;28;20185;-78
2021/12/25 09:24:36;;;;;;;13.30;10.93;;;4.90;99.90;;;;;;4937265;29;20179;-80
2021/12/25 09:27:02;;;;;;;14.27;11.50;;;4.80;99.90;;;;;;4942786;29;20181;-79
2021/12/25 09:29:28;;;;;;;15.50;11.90;;;4.80;99.90;;;;;;4939297;28;20579;-79
2021/12/25 09:31:54;;;;;;;13.77;10.90;;;4.80;99.90;;;;;;4951279;29;20206;-77
2021/12/25 09:34:19;;;;;;;22.40;12.38;;;4.80;99.90;;;;;;4970881;28;20182;-78
2021/12/25 09:36:45;;;;;;;14.18;11.40;;;5.00;99.90;;;;;;4956162;28;20201;-77
2021/12/25 09:39:11;;;;;;;16.48;11.90;;;5.20;99.90;;;;;;4956327;28;20191;-77
2021/12/25 09:41:37;;;;;;;17.40;11.43;;;5.10;99.90;;;;;;4956155;28;20175;-77
2021/12/25 09:44:04;;;;;;;14.85;11.40;;;5.00;99.90;;;;;;4956325;28;20182;-81
2021/12/25 09:46:30;;;;;;;13.73;11.25;;;5.00;99.90;;;;;;4955803;28;20174;-83
2021/12/25 09:48:55;;;;;;;12.35;11.05;;;5.00;99.90;;;;;;4954476;29;20244;-80
2021/12/25 09:51:21;;;;;;;14.45;10.60;;;4.90;99.90;;;;;;4955081;28;20171;-80
2021/12/25 09:54:01;;;;;;;16.58;12.18;;;4.90;99.90;;;;;;4956141;28;20194;-79
2021/12/25 09:56:28;;;;;;;13.00;11.32;;;4.90;99.90;;;;;;4956103;28;20241;-79
2021/12/25 09:58:54;;;;;;;14.52;11.65;;;4.90;99.90;;;;;;4955985;28;20183;-79
2021/12/25 10:01:43;;;;;;;14.52;11.43;;;5.00;99.90;;;;;;4955602;28;20182;-79
2021/12/25 10:04:11;;;;;;;15.57;11.90;;;4.90;99.90;;;;;;4955765;28;20190;-79
2021/12/25 10:06:40;;;;;;;16.15;11.95;;;5.00;99.90;;;;;;4955412;28;20186;-79
2021/12/25 10:09:20;;;;;;;15.40;13.18;;;5.20;99.90;;;;;;4955375;28;20614;-80
2021/12/25 10:12:08;;;;;;;18.77;13.63;;;5.10;99.90;;;;;;4954862;28;20609;-80
2021/12/25 10:14:39;;;;;;;14.40;12.07;;;5.10;99.90;;;;;;4956040;28;20167;-79
2021/12/25 10:17:26;;;;;;;18.65;13.85;;;4.90;99.90;;;;;;4954635;28;20182;-80
2021/12/25 10:20:12;;;;;;;17.40;12.85;;;4.80;99.90;;;;;;4956174;28;20174;-78
2021/12/25 10:23:15;;;;;;;18.65;13.43;;;4.80;99.90;;;;;;4956032;28;20171;-79
2021/12/25 10:25:46;;;;;;;17.17;13.10;;;4.80;99.90;;;;;;4950700;28;20195;-78
2021/12/25 10:28:15;;;;;;;17.17;13.57;;;4.90;99.90;;;;;;4955819;28;20202;-79
2021/12/25 10:30:46;;;;;;;21.50;13.43;;;4.70;99.90;;;;;;4955418;28;20638;-78
2021/12/25 10:33:35;;;;;;;14.40;11.95;;;4.60;99.90;;;;;;4955597;28;20217;-80
2021/12/25 10:36:07;;;;;;;16.70;12.45;;;4.70;99.90;;;;;;4955926;28;20181;-79
2021/12/25 10:38:33;;;;;;;16.60;12.75;;;4.60;99.90;;;;;;4955921;28;20182;-78
2021/12/25 10:41:20;;;;;;;18.30;13.38;;;4.40;99.90;;;;;;4955793;28;20177;-79
2021/12/25 10:43:48;;;;;;;16.60;13.30;;;4.40;99.90;;;;;;4955483;28;20178;-79
2021/12/25 10:46:14;;;;;;;19.70;15.20;;;4.40;99.90;;;;;;4955660;28;20159;-81
2021/12/25 10:48:40;;;;;;;20.02;15.45;;;4.40;99.90;;;;;;4955564;28;20191;-79
2021/12/25 10:51:21;;;;;;;19.73;14.07;;;4.60;99.90;;;;;;4954125;28;20190;-79
2021/12/25 10:53:52;;;;;;;21.33;15.02;;;4.60;99.90;;;;;;4955202;28;20289;-80
2021/12/25 10:56:19;;;;;;;23.45;16.67;;;4.80;99.90;;;;;;4955420;28;20588;-78
2021/12/25 10:58:44;;;;;;;20.45;15.48;;;5.00;99.90;;;;;;4955491;28;20183;-78
2021/12/25 11:01:13;;;;;;;22.25;16.10;;;4.70;99.90;;;;;;4955359;28;20237;-78
2021/12/25 11:03:41;;;;;;;23.42;16.40;;;4.60;99.90;;;;;;4955182;28;20249;-78
2021/12/25 11:06:18;;;;;;;22.25;15.82;;;4.60;99.90;;;;;;4955301;28;20159;-79
2021/12/25 11:08:46;;;;;;;23.58;15.98;;;4.70;99.90;;;;;;4955229;28;20655;-78
2021/12/25 11:11:20;;;;;;;26.17;17.95;;;4.80;99.90;;;;;;4955190;28;20173;-78
2021/12/25 11:13:51;;;;;;;23.38;16.80;;;5.00;99.90;;;;;;4954791;28;20581;-79
2021/12/25 11:16:27;;;;;;;26.15;17.23;;;5.10;99.90;;;;;;4954649;28;20573;-80
2021/12/25 11:19:14;;;;;;;22.70;15.85;;;4.90;99.90;;;;;;4954775;28;20683;-79
2021/12/25 11:21:49;;;;;;;27.15;17.63;;;4.90;99.90;;;;;;4954258;28;20186;-78
2021/12/25 11:24:26;;;;;;;24.67;16.63;;;4.90;99.90;;;;;;4953333;28;20180;-78
2021/12/25 11:26:55;;;;;;;26.58;16.60;;;4.90;99.90;;;;;;4954698;28;20177;-78
2021/12/25 11:29:24;;;;;;;24.45;17.20;;;5.00;99.90;;;;;;4969107;28;20206;-78
2021/12/25 11:31:51;;;;;;;27.23;17.60;;;4.70;99.90;;;;;;4954141;28;20277;-78
2021/12/25 11:34:18;;;;;;;30.85;18.42;;;4.60;99.90;;;;;;4954487;28;20269;-79
2021/12/25 11:36:48;;;;;;;25.65;17.23;;;4.80;99.90;;;;;;4953982;28;20173;-78
2021/12/25 11:39:17;;;;;;;25.65;17.73;;;4.80;99.90;;;;;;4954210;28;20580;-78
2021/12/25 11:41:43;;;;;;;27.67;17.42;;;4.90;99.90;;;;;;4954315;28;20249;-78
2021/12/25 11:44:50;;;;;;;32.08;18.05;;;4.70;99.90;;;;;;4954124;28;20166;-78
2021/12/25 11:47:33;;;;;;;27.80;17.58;;;4.70;99.90;;;;;;4953661;28;20222;-78
2021/12/25 11:50:01;;;;;;;30.13;17.52;;;4.70;99.90;;;;;;4954071;28;20169;-80
2021/12/25 11:52:33;;;;;;;28.95;18.98;;;4.50;99.90;;;;;;4954239;28;20212;-79
2021/12/25 11:56:17;;;;;;;29.15;18.38;;;4.50;99.90;;;;;;4954266;28;20546;-78
2021/12/25 11:58:39;;;;;;;28.50;17.15;;;4.40;99.90;;;;;;4953885;28;20243;-78
2021/12/25 12:01:41;;;;;;;26.98;17.55;;;4.40;99.90;;;;;;4954350;28;20253;-78
2021/12/25 12:04:09;;;;;;;26.40;16.95;;;4.50;99.90;;;;;;4954349;28;20233;-78
2021/12/25 12:06:47;;;;;;;27.55;18.52;;;4.50;99.90;;;;;;4954404;28;20171;-79
2021/12/25 12:09:21;;;;;;;25.85;17.45;;;4.50;99.90;;;;;;4954131;28;20594;-78
2021/12/25 12:11:50;;;;;;;26.33;18.35;;;4.40;99.90;;;;;;4954048;28;20205;-78
2021/12/25 12:14:23;;;;;;;28.75;19.98;;;4.40;99.90;;;;;;4954020;28;20234;-78
2021/12/25 12:16:52;;;;;;;29.55;18.65;;;4.30;99.90;;;;;;4954262;28;20186;-78
2021/12/25 12:19:37;;;;;;;31.88;19.95;;;4.30;99.90;;;;;;4953829;28;20241;-78
2021/12/25 12:26:07;;;;;;;29.98;20.15;;;4.20;99.90;;;;;;4953709;28;20182;-78
2021/12/25 12:28:11;;;;;;;31.17;19.85;;;4.30;99.90;;;;;;4951050;29;20198;-78
2021/12/25 12:30:45;;;;;;;30.38;20.45;;;4.20;99.90;;;;;;4954052;28;20262;-78
2021/12/25 12:33:10;;;;;;;31.33;18.83;;;4.00;99.90;;;;;;4957222;28;20203;-78
2021/12/25 12:35:38;;;;;;;35.03;21.40;;;4.20;99.90;;;;;;4957781;28;20658;-78
2021/12/25 12:38:51;;;;;;;32.67;21.08;;;4.30;99.90;;;;;;4957668;28;20195;-78
2021/12/25 12:41:30;;;;;;;38.25;23.17;;;4.30;99.90;;;;;;4957470;28;20552;-78
2021/12/25 12:44:23;;;;;;;35.25;22.85;;;4.30;99.90;;;;;;4957773;28;20619;-78
2021/12/25 12:46:55;;;;;;;34.17;21.50;;;4.10;99.90;;;;;;4957470;28;20178;-78
2021/12/25 12:49:23;;;;;;;35.38;21.98;;;4.20;99.90;;;;;;4957283;28;20540;-78
2021/12/25 12:52:27;;;;;;;32.45;20.88;;;4.30;99.90;;;;;;4957459;28;20229;-78
2021/12/25 12:55:13;;;;;;;35.45;21.65;;;4.50;99.90;;;;;;4957414;28;20182;-78
2021/12/25 12:57:41;;;;;;;33.28;21.80;;;4.50;99.90;;;;;;4953291;28;20190;-78
2021/12/25 13:00:25;;;;;;;36.42;22.90;;;4.40;99.90;;;;;;4957302;28;20686;-78
2021/12/25 13:02:53;;;;;;;35.63;23.55;;;4.20;99.90;;;;;;4956079;28;20174;-78
2021/12/25 13:05:21;;;;;;;38.53;23.13;;;4.20;99.90;;;;;;4957077;28;20166;-78
2021/12/25 13:07:49;;;;;;;43.22;24.48;;;4.20;99.90;;;;;;4956943;28;20197;-78
2021/12/25 13:10:26;;;;;;;41.67;24.15;;;4.20;99.90;;;;;;4957113;28;20488;-81
2021/12/25 13:13:06;;;;;;;39.30;23.73;;;4.30;99.90;;;;;;4956728;28;20210;-79
2021/12/25 13:15:33;;;;;;;40.53;23.40;;;4.40;99.90;;;;;;4956797;28;20170;-78
2021/12/25 13:18:02;;;;;;;38.53;23.75;;;4.30;99.90;;;;;;4956816;28;20209;-78
2021/12/25 13:20:42;;;;;;;33.20;21.73;;;4.30;99.90;;;;;;4956765;28;20166;-78
2021/12/25 13:23:16;;;;;;;38.60;22.20;;;4.10;99.90;;;;;;4956815;28;20174;-78
2021/12/25 13:25:55;;;;;;;39.88;22.23;;;3.90;99.90;;;;;;4956564;28;20166;-78
2021/12/25 13:28:22;;;;;;;38.38;22.83;;;3.80;99.90;;;;;;4956579;28;20190;-78
2021/12/25 13:30:52;;;;;;;41.65;23.70;;;3.90;99.90;;;;;;4955559;28;20232;-78
2021/12/25 13:33:21;;;;;;;38.17;22.75;;;3.90;99.90;;;;;;4955280;28;20575;-78
2021/12/25 13:35:56;;;;;;;41.88;24.50;;;3.80;99.90;;;;;;4956823;28;20648;-78
2021/12/25 13:38:22;;;;;;;39.92;23.70;;;3.80;99.90;;;;;;4956764;28;20204;-78
2021/12/25 13:40:49;;;;;;;42.65;24.30;;;3.90;99.90;;;;;;4956803;28;20171;-78
2021/12/25 13:43:15;;;;;;;38.33;24.25;;;4.10;99.90;;;;;;4956136;28;20192;-78
2021/12/25 13:45:40;;;;;;;37.50;22.58;;;4.00;99.90;;;;;;4955033;29;20631;-78
2021/12/25 13:48:06;;;;;;;43.92;21.92;;;4.00;99.90;;;;;;4956237;28;20198;-80
2021/12/25 13:50:34;;;;;;;34.38;22.80;;;4.00;99.90;;;;;;4956185;28;20166;-79
2021/12/25 13:52:59;;;;;;;37.47;22.73;;;3.90;99.90;;;;;;4955991;28;20569;-79
2021/12/25 13:55:31;;;;;;;39.00;22.95;;;3.90;99.90;;;;;;4956123;28;20172;-79
2021/12/25 13:58:08;;;;;;;37.55;23.27;;;3.90;99.90;;;;;;4955739;28;20206;-78
2021/12/25 14:00:46;;;;;;;38.92;23.90;;;3.70;99.90;;;;;;4956327;28;20170;-78
2021/12/25 14:03:15;;;;;;;40.95;24.35;;;3.80;99.90;;;;;;4956203;28;20254;-79